Time;durP1;ratioP1;P1;durP2;ratioP2;P2;SDS_P1;SDS_P2;PMS_P1;PMS_P2;Temp;Humidity;BMP_temperature;BMP_pressure;BME280_temperature;BME280_humidity;BME280_pressure;Samples;Min_cycle;Max_cycle;Signal;HPM_P1;HPM_P2
2021/05/21 00:02:24;;;;;;;3.70;2.35;;;23.00;52.70;;;;;;5068904;28;20032;-34
2021/05/21 00:04:49;;;;;;;4.15;1.65;;;23.10;52.70;;;;;;5063371;28;20024;-33
2021/05/21 00:07:15;;;;;;;1.83;1.73;;;23.10;52.70;;;;;;5067204;28;20507;-34
2021/05/21 00:09:40;;;;;;;2.65;1.65;;;23.10;52.60;;;;;;5067127;28;20024;-32
2021/05/21 00:12:06;;;;;;;2.30;1.70;;;23.00;52.50;;;;;;5067466;28;20036;-34
2021/05/21 00:14:32;;;;;;;2.20;1.85;;;23.10;52.50;;;;;;5063789;28;20115;-34
2021/05/21 00:16:57;;;;;;;2.63;1.88;;;23.10;52.40;;;;;;5065485;28;20036;-34
2021/05/21 00:19:23;;;;;;;2.40;1.83;;;23.10;52.40;;;;;;5059390;28;20036;-33
2021/05/21 00:21:49;;;;;;;4.15;1.95;;;23.10;52.40;;;;;;5066216;28;20035;-35
2021/05/21 00:24:14;;;;;;;1.88;1.70;;;23.10;52.20;;;;;;5062411;28;20536;-34
2021/05/21 00:26:40;;;;;;;2.25;1.92;;;23.20;52.30;;;;;;5066921;28;20088;-35
2021/05/21 00:29:06;;;;;;;2.42;2.05;;;23.10;52.50;;;;;;5067810;28;20479;-35
2021/05/21 00:31:32;;;;;;;4.28;1.85;;;23.00;52.50;;;;;;5064235;28;20107;-35
2021/05/21 00:33:58;;;;;;;2.33;1.90;;;22.90;52.60;;;;;;5067547;28;20035;-33
2021/05/21 00:36:24;;;;;;;2.22;1.70;;;23.00;53.20;;;;;;5066679;28;20033;-33
2021/05/21 00:38:50;;;;;;;3.05;1.80;;;23.00;52.50;;;;;;5067025;28;20033;-33
2021/05/21 00:41:15;;;;;;;2.83;1.40;;;23.00;52.60;;;;;;5068961;28;20048;-31
2021/05/21 00:43:41;;;;;;;4.63;2.00;;;23.00;52.30;;;;;;5061307;28;20059;-34
2021/05/21 00:46:06;;;;;;;3.55;1.65;;;22.90;52.50;;;;;;5065039;28;20090;-34
2021/05/21 00:48:32;;;;;;;2.72;1.65;;;23.00;52.50;;;;;;5065503;28;20025;-32
2021/05/21 00:50:57;;;;;;;3.17;1.80;;;23.00;52.30;;;;;;5065179;28;20100;-34
2021/05/21 00:53:26;;;;;;;2.38;1.65;;;23.00;52.40;;;;;;5065650;28;20033;-30
2021/05/21 00:55:52;;;;;;;3.00;1.50;;;22.80;52.90;;;;;;5048255;28;20040;-33
2021/05/21 00:58:17;;;;;;;2.55;1.75;;;22.70;52.90;;;;;;5064487;28;20029;-33
2021/05/21 01:00:43;;;;;;;2.75;1.88;;;22.80;52.90;;;;;;5067004;28;20440;-33
2021/05/21 01:03:09;;;;;;;2.58;1.67;;;22.70;53.10;;;;;;5065814;28;20040;-31
2021/05/21 01:05:34;;;;;;;1.90;1.38;;;22.80;52.90;;;;;;5066907;28;20052;-31
2021/05/21 01:08:00;;;;;;;2.53;1.55;;;22.80;52.80;;;;;;5067505;28;20062;-32
2021/05/21 01:10:25;;;;;;;2.80;1.63;;;22.90;52.70;;;;;;5066794;28;20024;-33
2021/05/21 01:12:51;;;;;;;1.95;1.70;;;22.90;52.60;;;;;;5063691;28;20020;-31
2021/05/21 01:15:17;;;;;;;2.20;1.80;;;22.90;52.50;;;;;;5063053;28;20036;-33
2021/05/21 01:17:42;;;;;;;2.05;1.55;;;22.90;52.30;;;;;;5065720;28;20098;-34
2021/05/21 01:20:09;;;;;;;2.47;1.92;;;23.00;52.40;;;;;;5066572;28;20490;-34
2021/05/21 01:22:34;;;;;;;2.83;1.50;;;22.90;52.60;;;;;;5064096;28;20068;-34
2021/05/21 01:25:00;;;;;;;2.30;1.90;;;22.90;52.60;;;;;;5062953;28;20030;-33
2021/05/21 01:27:26;;;;;;;2.55;1.85;;;22.90;52.50;;;;;;5065085;28;20078;-33
2021/05/21 01:29:52;;;;;;;2.90;1.70;;;22.80;52.60;;;;;;5065135;28;20502;-32
2021/05/21 01:32:17;;;;;;;3.13;1.73;;;22.80;52.70;;;;;;5058546;28;20058;-33
2021/05/21 01:34:43;;;;;;;3.22;1.80;;;22.80;52.50;;;;;;5059814;28;20028;-33
2021/05/21 01:37:13;;;;;;;2.35;1.52;;;22.90;52.40;;;;;;5061852;28;20040;-33
2021/05/21 01:39:39;;;;;;;2.42;1.58;;;22.90;52.40;;;;;;5045857;28;20491;-34
2021/05/21 01:42:04;;;;;;;2.88;1.80;;;22.90;52.40;;;;;;5048630;28;20024;-33
2021/05/21 01:44:30;;;;;;;1.85;1.55;;;22.80;52.60;;;;;;5048584;28;20024;-35
2021/05/21 01:46:56;;;;;;;4.90;1.95;;;22.80;52.70;;;;;;5065108;28;20020;-33
2021/05/21 01:49:21;;;;;;;2.15;1.63;;;22.70;52.90;;;;;;5065183;28;20608;-33
2021/05/21 01:51:54;;;;;;;2.88;2.00;;;22.70;52.70;;;;;;5064334;28;20036;-34
2021/05/21 01:54:20;;;;;;;2.92;1.70;;;22.80;52.60;;;;;;5061909;28;20602;-32
2021/05/21 01:56:48;;;;;;;1.70;1.40;;;22.80;53.10;;;;;;5066110;28;20048;-35
2021/05/21 01:59:14;;;;;;;1.90;1.27;;;22.80;52.50;;;;;;5067965;28;20033;-34
2021/05/21 02:01:40;;;;;;;2.60;1.60;;;22.80;52.60;;;;;;5066527;28;20116;-35
2021/05/21 02:04:05;;;;;;;2.15;1.38;;;22.80;52.60;;;;;;5063000;28;20111;-32
2021/05/21 02:06:34;;;;;;;3.03;2.03;;;22.70;53.20;;;;;;5061360;28;20029;-33
2021/05/21 02:08:59;;;;;;;3.53;1.75;;;22.80;52.60;;;;;;5064565;28;20082;-34
2021/05/21 02:11:25;;;;;;;2.72;1.92;;;22.80;52.70;;;;;;5066285;28;20107;-37
2021/05/21 02:13:50;;;;;;;2.55;1.90;;;22.60;53.00;;;;;;5048255;28;20079;-33
2021/05/21 02:16:16;;;;;;;2.30;1.70;;;22.60;53.00;;;;;;5062906;28;20048;-34
2021/05/21 02:18:42;;;;;;;4.05;1.90;;;22.60;52.90;;;;;;5065619;28;20028;-35
2021/05/21 02:21:08;;;;;;;1.55;1.45;;;22.60;52.90;;;;;;5065102;28;20032;-42
2021/05/21 02:23:34;;;;;;;2.30;1.65;;;22.60;52.90;;;;;;5060663;28;20167;-33
2021/05/21 02:25:59;;;;;;;4.90;2.13;;;22.70;53.60;;;;;;5067567;28;20071;-36
2021/05/21 02:28:25;;;;;;;2.28;1.60;;;22.50;53.20;;;;;;5064533;28;20040;-34
2021/05/21 02:30:50;;;;;;;2.78;1.80;;;22.50;53.40;;;;;;5062517;28;20501;-33
2021/05/21 02:33:16;;;;;;;2.97;1.65;;;22.50;54.20;;;;;;5068101;28;20031;-32
2021/05/21 02:35:42;;;;;;;2.83;2.22;;;22.50;53.70;;;;;;5067264;28;20021;-33
2021/05/21 02:38:07;;;;;;;2.47;1.90;;;22.50;53.50;;;;;;5069800;28;20060;-34
2021/05/21 02:40:33;;;;;;;2.63;2.00;;;22.60;54.50;;;;;;5067104;28;20040;-37
2021/05/21 02:42:58;;;;;;;3.15;2.15;;;22.50;54.00;;;;;;5065620;28;20407;-35
2021/05/21 02:45:24;;;;;;;3.65;1.83;;;22.50;54.50;;;;;;5067956;28;20134;-34
2021/05/21 02:47:50;;;;;;;3.10;2.00;;;22.50;53.70;;;;;;5067044;28;20033;-34
2021/05/21 02:50:15;;;;;;;2.30;1.90;;;22.60;53.40;;;;;;5070641;28;20545;-34
2021/05/21 02:52:41;;;;;;;3.55;1.90;;;22.70;53.40;;;;;;5068167;28;20497;-31
2021/05/21 02:55:07;;;;;;;2.72;1.70;;;22.60;54.10;;;;;;5063418;28;20025;-34
2021/05/21 02:57:32;;;;;;;2.17;1.63;;;22.70;53.30;;;;;;5069951;28;20621;-35
2021/05/21 02:59:58;;;;;;;2.05;1.42;;;22.70;53.30;;;;;;5057745;28;20018;-32
2021/05/21 03:02:24;;;;;;;3.88;2.00;;;22.60;53.60;;;;;;5071421;28;20024;-34
2021/05/21 03:04:53;;;;;;;2.25;1.63;;;22.50;53.70;;;;;;5065864;28;20490;-34
2021/05/21 03:07:18;;;;;;;1.70;1.60;;;22.50;53.80;;;;;;5062233;28;20071;-33
2021/05/21 03:09:44;;;;;;;2.65;1.95;;;22.50;54.60;;;;;;5057621;28;20024;-38
2021/05/21 03:12:10;;;;;;;2.92;1.88;;;22.40;54.00;;;;;;5067427;28;20037;-33
2021/05/21 03:14:36;;;;;;;2.38;1.67;;;22.40;53.80;;;;;;5067898;28;20475;-37
2021/05/21 03:17:02;;;;;;;2.00;1.70;;;22.50;53.70;;;;;;5071176;28;20052;-33
2021/05/21 03:19:28;;;;;;;2.45;1.83;;;22.50;53.90;;;;;;5067149;28;20021;-41
2021/05/21 03:21:54;;;;;;;2.85;1.80;;;22.50;54.00;;;;;;5049175;28;20032;-34
2021/05/21 03:24:19;;;;;;;1.90;1.80;;;22.50;53.80;;;;;;5063121;28;20047;-33
2021/05/21 03:26:45;;;;;;;2.53;1.70;;;22.50;53.70;;;;;;5069308;28;20087;-34
2021/05/21 03:29:10;;;;;;;2.00;1.80;;;22.50;53.60;;;;;;5062313;28;20025;-37
2021/05/21 03:31:36;;;;;;;3.03;1.80;;;22.50;53.70;;;;;;5063313;28;20040;-34
2021/05/21 03:34:02;;;;;;;3.25;1.77;;;22.50;53.50;;;;;;5064770;28;20021;-35
2021/05/21 03:36:28;;;;;;;2.78;1.90;;;22.60;53.60;;;;;;5067988;28;20052;-32
2021/05/21 03:38:54;;;;;;;2.45;1.70;;;22.50;53.40;;;;;;5065910;28;20025;-34
2021/05/21 03:41:19;;;;;;;3.40;1.60;;;22.60;53.30;;;;;;5070704;28;20085;-33
2021/05/21 03:43:45;;;;;;;3.08;1.90;;;22.50;53.40;;;;;;5064233;28;20032;-34
2021/05/21 03:46:10;;;;;;;2.70;1.80;;;22.50;53.20;;;;;;5065883;28;20028;-33
2021/05/21 03:48:36;;;;;;;2.92;1.75;;;22.60;53.10;;;;;;5066246;28;20150;-33
2021/05/21 03:51:01;;;;;;;2.42;1.90;;;22.60;53.10;;;;;;5067328;28;20032;-35
2021/05/21 03:53:27;;;;;;;3.33;1.73;;;22.60;53.00;;;;;;5064735;28;20036;-47
2021/05/21 03:55:52;;;;;;;2.85;1.98;;;22.60;53.10;;;;;;5067707;28;20043;-34
2021/05/21 03:58:18;;;;;;;2.85;1.60;;;22.60;53.20;;;;;;5065681;28;20041;-36
2021/05/21 04:00:44;;;;;;;2.75;2.20;;;22.60;53.00;;;;;;5058944;28;20157;-33
2021/05/21 04:03:09;;;;;;;3.13;2.10;;;22.50;53.30;;;;;;5049648;28;20039;-34
2021/05/21 04:05:35;;;;;;;2.33;1.63;;;22.50;53.40;;;;;;5066886;28;20020;-32
2021/05/21 04:08:00;;;;;;;2.75;1.80;;;22.60;53.10;;;;;;5065491;28;20035;-33
2021/05/21 04:10:26;;;;;;;2.33;1.70;;;22.50;53.40;;;;;;5066051;28;20052;-35
2021/05/21 04:12:52;;;;;;;2.28;1.98;;;22.50;53.20;;;;;;5063017;28;20107;-34
2021/05/21 04:15:18;;;;;;;2.47;1.63;;;22.50;53.20;;;;;;5052902;28;20056;-32
2021/05/21 04:17:44;;;;;;;3.45;1.83;;;22.50;53.30;;;;;;5067211;28;20580;-33
2021/05/21 04:20:10;;;;;;;3.88;1.85;;;22.50;53.40;;;;;;5068284;28;20028;-31
2021/05/21 04:22:36;;;;;;;2.97;1.90;;;22.40;53.60;;;;;;5064905;28;20037;-33
2021/05/21 04:25:02;;;;;;;1.70;1.60;;;22.40;53.60;;;;;;5060601;28;20031;-33
2021/05/21 04:27:28;;;;;;;3.00;1.95;;;22.40;53.50;;;;;;5062577;28;20019;-32
2021/05/21 04:29:53;;;;;;;2.47;1.98;;;22.40;53.60;;;;;;5063383;28;20032;-34
2021/05/21 04:32:19;;;;;;;1.90;1.60;;;22.30;53.80;;;;;;5066593;28;20113;-34
2021/05/21 04:34:44;;;;;;;1.85;1.63;;;22.10;54.70;;;;;;5065352;28;20150;-34
2021/05/21 04:37:10;;;;;;;3.25;1.80;;;22.00;55.90;;;;;;5066119;28;20498;-34
2021/05/21 04:39:36;;;;;;;2.30;1.77;;;21.90;56.50;;;;;;5039361;28;20107;-33
2021/05/21 04:42:01;;;;;;;2.65;1.90;;;21.90;58.00;;;;;;5065903;28;20063;-34
2021/05/21 04:44:27;;;;;;;1.95;1.60;;;21.90;59.90;;;;;;5062970;28;20468;-33
2021/05/21 04:46:52;;;;;;;2.65;1.73;;;21.90;58.30;;;;;;5066138;28;20027;-34
2021/05/21 04:49:33;;;;;;;2.75;2.08;;;21.80;61.60;;;;;;5061568;28;20029;-34
2021/05/21 04:52:07;;;;;;;2.60;1.70;;;21.80;60.10;;;;;;5052905;28;20540;-32
2021/05/21 04:54:33;;;;;;;3.17;2.08;;;21.90;60.90;;;;;;5057281;28;20533;-34
2021/05/21 04:56:59;;;;;;;2.25;1.60;;;21.80;60.80;;;;;;5062974;28;20470;-32
2021/05/21 04:59:24;;;;;;;2.08;1.73;;;21.80;61.60;;;;;;5064229;28;20024;-34
2021/05/21 05:01:50;;;;;;;3.53;1.88;;;21.80;60.00;;;;;;5067659;28;20063;-33
2021/05/21 05:04:15;;;;;;;2.47;1.80;;;21.80;59.30;;;;;;5064278;28;20090;-34
2021/05/21 05:06:42;;;;;;;2.70;1.73;;;21.80;58.40;;;;;;5065108;28;20028;-32
2021/05/21 05:09:08;;;;;;;4.00;2.08;;;21.80;58.00;;;;;;5065797;28;20020;-34
2021/05/21 05:11:34;;;;;;;2.47;1.58;;;21.90;57.40;;;;;;5069063;28;20589;-34
2021/05/21 05:13:59;;;;;;;3.08;1.75;;;22.10;56.40;;;;;;5065956;28;20028;-32
2021/05/21 05:16:25;;;;;;;3.03;1.95;;;22.10;56.90;;;;;;5062180;28;20037;-33
2021/05/21 05:18:51;;;;;;;2.53;1.50;;;22.10;56.40;;;;;;5061330;28;20680;-33
2021/05/21 05:21:16;;;;;;;2.05;1.80;;;22.10;56.40;;;;;;5053880;28;20024;-34
2021/05/21 05:23:43;;;;;;;2.95;1.50;;;22.10;56.10;;;;;;5057152;28;20487;-33
2021/05/21 05:26:12;;;;;;;2.85;1.65;;;22.10;56.20;;;;;;5061981;28;20066;-34
2021/05/21 05:28:38;;;;;;;3.70;1.70;;;22.20;55.90;;;;;;5059312;28;20039;-34
2021/05/21 05:31:03;;;;;;;2.72;1.70;;;22.10;56.40;;;;;;5059601;28;20081;-34
2021/05/21 05:33:29;;;;;;;4.78;2.08;;;22.10;56.20;;;;;;5061515;28;20524;-34
2021/05/21 05:35:54;;;;;;;4.13;1.80;;;22.10;56.10;;;;;;5065081;28;20027;-34
2021/05/21 05:38:20;;;;;;;2.80;2.03;;;22.20;55.50;;;;;;5063850;28;20075;-33
2021/05/21 05:40:45;;;;;;;5.15;1.80;;;22.20;55.60;;;;;;5061983;28;20051;-33
2021/05/21 05:43:11;;;;;;;2.67;1.88;;;22.20;56.20;;;;;;5063932;28;20032;-34
2021/05/21 05:45:37;;;;;;;3.70;1.67;;;22.20;55.50;;;;;;5063595;28;20146;-34
2021/05/21 05:48:02;;;;;;;2.28;1.73;;;22.10;56.00;;;;;;5060658;28;20705;-34
2021/05/21 05:50:28;;;;;;;2.53;1.88;;;22.20;55.60;;;;;;5063158;28;20020;-33
2021/05/21 05:52:54;;;;;;;2.28;1.75;;;22.30;55.20;;;;;;5060534;28;20119;-33
2021/05/21 05:55:19;;;;;;;2.75;1.90;;;22.30;55.30;;;;;;5060446;28;20029;-33
2021/05/21 05:57:45;;;;;;;2.03;1.60;;;22.20;55.20;;;;;;5059399;28;20040;-33
2021/05/21 06:00:11;;;;;;;4.75;2.17;;;22.20;55.30;;;;;;5063144;28;20061;-30
2021/05/21 06:02:37;;;;;;;3.17;1.80;;;22.20;55.00;;;;;;5062201;28;20038;-32
2021/05/21 06:05:03;;;;;;;2.03;1.80;;;22.10;55.40;;;;;;5067662;28;20033;-39
2021/05/21 06:07:29;;;;;;;2.55;1.55;;;22.20;55.10;;;;;;5065881;28;20044;-36
2021/05/21 06:09:55;;;;;;;3.28;2.03;;;22.20;55.80;;;;;;5064471;28;20507;-34
2021/05/21 06:12:20;;;;;;;2.47;1.40;;;22.20;55.50;;;;;;5056694;28;20040;-33
2021/05/21 06:14:46;;;;;;;2.13;1.35;;;22.30;54.90;;;;;;5068021;28;20660;-34
2021/05/21 06:17:12;;;;;;;3.08;1.70;;;22.30;54.70;;;;;;5063857;28;20123;-33
2021/05/21 06:19:37;;;;;;;2.88;1.67;;;22.20;55.10;;;;;;5069337;28;20376;-33
2021/05/21 06:22:03;;;;;;;3.58;1.63;;;22.20;55.00;;;;;;5065526;28;20086;-32
2021/05/21 06:24:29;;;;;;;2.13;1.70;;;22.30;55.10;;;;;;5060213;28;20025;-33
2021/05/21 06:29:39;;;;;;;5.95;1.90;;;22.20;55.10;;;;;;5062193;28;20055;-33
2021/05/21 06:32:05;;;;;;;2.60;1.70;;;22.30;55.70;;;;;;5063456;28;20033;-37
2021/05/21 06:34:30;;;;;;;4.30;1.85;;;22.30;55.30;;;;;;5067109;28;20488;-35
2021/05/21 06:36:56;;;;;;;5.10;1.52;;;22.20;55.20;;;;;;5065552;28;20519;-34
2021/05/21 06:39:21;;;;;;;2.05;1.63;;;22.10;55.70;;;;;;5058757;28;20052;-35
2021/05/21 06:41:47;;;;;;;3.25;1.67;;;22.10;56.80;;;;;;5069801;28;20033;-34
2021/05/21 06:44:13;;;;;;;2.33;1.63;;;22.20;55.60;;;;;;5071032;28;20017;-34
2021/05/21 06:46:38;;;;;;;3.72;1.90;;;22.20;55.90;;;;;;5070100;28;20106;-34
2021/05/21 06:49:10;;;;;;;5.60;1.80;;;22.20;55.90;;;;;;5069869;28;20040;-34
2021/05/21 06:51:36;;;;;;;3.45;1.85;;;22.30;55.50;;;;;;5069524;28;20025;-34
2021/05/21 06:54:01;;;;;;;4.15;2.22;;;22.10;56.00;;;;;;5065889;28;20048;-34
2021/05/21 06:56:27;;;;;;;3.85;1.80;;;22.10;56.30;;;;;;5070899;28;20028;-34
2021/05/21 06:58:53;;;;;;;2.70;1.85;;;22.10;56.40;;;;;;5071142;28;20104;-33
2021/05/21 07:01:18;;;;;;;6.22;2.10;;;22.20;56.20;;;;;;5067459;28;20040;-33
2021/05/21 07:03:44;;;;;;;2.70;1.80;;;22.10;56.50;;;;;;5063314;28;20029;-34
2021/05/21 07:06:09;;;;;;;3.65;1.85;;;22.00;56.50;;;;;;5068928;28;20060;-38
2021/05/21 07:08:35;;;;;;;4.60;1.90;;;22.00;56.70;;;;;;5054855;28;20056;-33
2021/05/21 07:11:00;;;;;;;4.55;2.05;;;22.00;56.70;;;;;;5070806;28;20489;-33
2021/05/21 07:13:29;;;;;;;2.75;1.88;;;22.00;56.80;;;;;;5069027;28;20036;-34
2021/05/21 07:15:54;;;;;;;1.70;1.45;;;22.10;56.70;;;;;;5069203;28;20083;-34
2021/05/21 07:18:21;;;;;;;2.15;1.42;;;22.10;56.80;;;;;;5067689;28;20056;-35
2021/05/21 07:20:47;;;;;;;3.00;1.83;;;22.00;56.70;;;;;;5069861;28;20037;-32
2021/05/21 07:23:14;;;;;;;3.60;1.98;;;22.00;56.80;;;;;;5071542;28;20455;-32
2021/05/21 07:25:40;;;;;;;2.55;1.60;;;22.00;56.90;;;;;;5067474;28;20036;-32
2021/05/21 07:28:05;;;;;;;2.03;1.67;;;22.00;56.90;;;;;;5069379;28;20037;-33
2021/05/21 07:30:31;;;;;;;2.70;1.92;;;22.00;56.90;;;;;;5066994;28;20025;-34
2021/05/21 07:32:56;;;;;;;3.45;1.80;;;22.00;57.10;;;;;;5062737;28;20505;-34
2021/05/21 07:35:24;;;;;;;3.33;1.70;;;22.00;56.90;;;;;;5070933;28;20050;-33
2021/05/21 07:37:50;;;;;;;2.25;2.03;;;22.00;57.00;;;;;;5059279;28;20080;-35
2021/05/21 07:40:17;;;;;;;5.43;1.80;;;22.10;56.80;;;;;;5067108;28;20107;-34
2021/05/21 07:42:43;;;;;;;2.10;1.65;;;22.10;56.80;;;;;;5048743;28;20028;-32
2021/05/21 07:45:09;;;;;;;2.78;1.60;;;22.30;56.40;;;;;;4714746;28;10000045;-28
2021/05/21 07:47:35;;;;;;;2.70;1.80;;;22.30;56.10;;;;;;5068227;28;20124;-33
2021/05/21 07:50:01;;;;;;;1.95;1.52;;;22.40;55.50;;;;;;5070556;28;20495;-35
2021/05/21 07:52:26;;;;;;;4.85;1.60;;;22.50;55.40;;;;;;5065797;28;20057;-34
2021/05/21 07:54:52;;;;;;;3.55;1.92;;;22.60;55.10;;;;;;5062656;28;20463;-35
2021/05/21 07:57:17;;;;;;;3.35;1.95;;;22.60;55.30;;;;;;5068227;28;20044;-34
2021/05/21 07:59:43;;;;;;;3.00;1.85;;;22.60;55.00;;;;;;5068606;28;20028;-34
2021/05/21 08:02:08;;;;;;;2.13;1.85;;;22.50;55.10;;;;;;5068940;28;20073;-33
2021/05/21 08:04:34;;;;;;;3.10;2.17;;;22.50;55.30;;;;;;5065224;28;20029;-34
2021/05/21 08:07:00;;;;;;;3.30;1.98;;;22.40;56.10;;;;;;5063744;28;20035;-35
2021/05/21 08:09:26;;;;;;;3.13;2.03;;;22.40;56.50;;;;;;5055999;28;20028;-34
2021/05/21 08:11:51;;;;;;;1.88;1.70;;;22.40;55.80;;;;;;5067182;28;20021;-32
2021/05/21 08:14:17;;;;;;;3.30;1.60;;;22.40;55.10;;;;;;5060443;28;20513;-34
2021/05/21 08:16:42;;;;;;;3.97;2.17;;;22.30;56.40;;;;;;5063422;28;20101;-35
2021/05/21 08:19:08;;;;;;;3.17;2.05;;;22.30;55.30;;;;;;5063837;28;20489;-34
2021/05/21 08:21:34;;;;;;;2.30;1.65;;;22.40;55.50;;;;;;5066370;28;20103;-33
2021/05/21 08:24:00;;;;;;;2.97;2.00;;;22.50;55.70;;;;;;5066062;28;20037;-34
2021/05/21 08:26:26;;;;;;;3.17;1.90;;;22.40;56.00;;;;;;5067926;28;20037;-35
2021/05/21 08:28:57;;;;;;;3.28;1.70;;;22.50;55.10;;;;;;5064507;28;20552;-33
2021/05/21 08:31:23;;;;;;;3.38;1.73;;;22.50;56.60;;;;;;5063829;28;20043;-33
2021/05/21 08:33:49;;;;;;;2.83;1.85;;;22.50;56.30;;;;;;5057411;28;20108;-32
2021/05/21 08:36:15;;;;;;;2.03;1.70;;;22.50;55.90;;;;;;5052239;28;20040;-38
2021/05/21 08:38:46;;;;;;;3.33;1.92;;;22.50;55.80;;;;;;5064548;28;20453;-33
2021/05/21 08:41:25;;;;;;;1.90;1.70;;;22.60;55.20;;;;;;5064046;28;20025;-34
2021/05/21 08:43:51;;;;;;;2.78;1.60;;;22.70;54.80;;;;;;5059369;28;20115;-34
2021/05/21 08:46:18;;;;;;;2.53;1.67;;;22.80;54.40;;;;;;5059667;28;20032;-34
2021/05/21 08:48:43;;;;;;;1.75;1.50;;;23.00;54.10;;;;;;5063378;28;20668;-34
2021/05/21 08:51:09;;;;;;;2.35;1.58;;;23.10;54.00;;;;;;5062008;28;20107;-34
2021/05/21 08:53:38;;;;;;;3.90;1.50;;;23.10;55.40;;;;;;5051979;28;20059;-35
2021/05/21 08:56:05;;;;;;;3.25;1.77;;;23.00;54.90;;;;;;5065632;28;20029;-34
2021/05/21 08:58:32;;;;;;;3.08;1.50;;;23.00;54.60;;;;;;5062885;28;20069;-34
2021/05/21 09:00:57;;;;;;;2.58;1.63;;;23.10;54.20;;;;;;5064403;28;20056;-34
2021/05/21 09:03:27;;;;;;;1.90;1.50;;;23.10;54.50;;;;;;5061747;28;20042;-33
2021/05/21 09:06:21;;;;;;;1.58;1.30;;;23.20;54.80;;;;;;5057777;28;20029;-34
2021/05/21 09:08:51;;;;;;;2.22;1.27;;;23.10;54.70;;;;;;5061911;28;20074;-33
2021/05/21 09:11:34;;;;;;;2.13;1.38;;;23.20;54.30;;;;;;5054060;28;20033;-34
2021/05/21 09:14:00;;;;;;;2.20;1.60;;;23.10;53.80;;;;;;5064066;28;20112;-34
2021/05/21 09:16:28;;;;;;;4.32;1.67;;;23.00;53.40;;;;;;5064221;28;20051;-34
2021/05/21 09:19:06;;;;;;;4.03;1.70;;;22.90;53.40;;;;;;5063190;28;20040;-40
2021/05/21 09:21:56;;;;;;;5.40;1.70;;;23.00;52.80;;;;;;5058197;28;20055;-35
2021/05/21 09:24:36;;;;;;;4.30;2.20;;;23.10;50.60;;;;;;5058705;28;20073;-35
2021/05/21 09:27:03;;;;;;;11.70;2.00;;;23.00;52.50;;;;;;5059793;28;20107;-33
2021/05/21 09:29:50;;;;;;;3.67;2.25;;;22.90;51.40;;;;;;5064995;28;20055;-33
2021/05/21 09:32:17;;;;;;;3.75;2.05;;;22.70;50.70;;;;;;5063563;28;20021;-40
2021/05/21 09:34:47;;;;;;;4.63;1.88;;;22.70;51.60;;;;;;5061106;28;20490;-34
2021/05/21 09:37:22;;;;;;;7.43;2.55;;;22.70;52.40;;;;;;5054923;28;20584;-35
2021/05/21 09:40:10;;;;;;;6.28;2.15;;;23.00;51.90;;;;;;5061364;28;20020;-33
2021/05/21 09:42:46;;;;;;;2.90;1.73;;;23.10;51.30;;;;;;5062722;28;20037;-30
2021/05/21 09:45:21;;;;;;;2.78;1.30;;;23.20;51.30;;;;;;5057486;28;20032;-35
2021/05/21 09:47:58;;;;;;;6.10;2.00;;;23.30;51.20;;;;;;5063114;28;20417;-43
2021/05/21 09:50:34;;;;;;;3.80;1.52;;;23.40;51.00;;;;;;5062228;28;20021;-33
2021/05/21 09:53:21;;;;;;;2.92;1.48;;;23.40;50.90;;;;;;5062725;28;20050;-38
2021/05/21 09:55:53;;;;;;;4.22;1.80;;;23.30;51.30;;;;;;5054859;28;20111;-34
2021/05/21 09:58:29;;;;;;;2.55;1.45;;;23.30;51.40;;;;;;5058148;28;20090;-34
2021/05/21 10:01:14;;;;;;;2.47;1.60;;;23.30;52.50;;;;;;5054943;28;20691;-34
2021/05/21 10:03:53;;;;;;;3.33;1.50;;;23.20;52.00;;;;;;5056862;28;20028;-34
2021/05/21 10:06:19;;;;;;;4.63;1.63;;;23.20;51.60;;;;;;5055760;28;20040;-37
2021/05/21 10:08:45;;;;;;;3.30;1.48;;;23.30;52.10;;;;;;5055830;28;20024;-34
2021/05/21 10:11:11;;;;;;;4.43;1.60;;;23.10;52.20;;;;;;5060262;28;20119;-30
2021/05/21 10:13:37;;;;;;;2.40;1.48;;;23.10;52.20;;;;;;5054920;28;20074;-38
2021/05/21 10:16:05;;;;;;;3.45;1.40;;;23.30;52.20;;;;;;5066955;28;20174;-35
2021/05/21 10:18:31;;;;;;;3.08;1.48;;;23.20;52.00;;;;;;5040039;28;20080;-37
2021/05/21 10:20:57;;;;;;;2.15;1.35;;;23.20;52.00;;;;;;5062594;28;20024;-34
2021/05/21 10:23:27;;;;;;;5.45;1.85;;;23.30;51.90;;;;;;5064595;28;20043;-36
2021/05/21 10:25:55;;;;;;;2.50;1.40;;;23.50;51.90;;;;;;5060175;28;20039;-34
2021/05/21 10:28:30;;;;;;;2.30;1.55;;;23.50;51.10;;;;;;5065635;28;20131;-37
2021/05/21 10:31:00;;;;;;;2.85;1.60;;;23.60;50.90;;;;;;5058154;28;20476;-36
2021/05/21 10:33:32;;;;;;;3.00;1.40;;;23.70;50.40;;;;;;5060641;28;20078;-36
2021/05/21 10:36:22;;;;;;;3.27;1.40;;;23.70;50.10;;;;;;4711021;28;10000497;-36
2021/05/21 10:39:03;;;;;;;6.18;1.60;;;23.60;51.10;;;;;;5069289;28;20845;-36
2021/05/21 10:41:29;;;;;;;2.65;1.67;;;23.40;51.50;;;;;;5057129;28;20625;-41
2021/05/21 10:43:55;;;;;;;3.28;1.65;;;23.40;52.00;;;;;;5066977;28;20024;-38
2021/05/21 10:46:21;;;;;;;3.42;1.70;;;23.30;51.90;;;;;;5066647;28;20039;-36
2021/05/21 10:48:53;;;;;;;4.90;1.85;;;23.20;53.20;;;;;;5065438;28;20057;-37
2021/05/21 10:51:19;;;;;;;3.88;1.88;;;23.20;52.40;;;;;;5070006;28;20146;-37
2021/05/21 10:53:46;;;;;;;3.35;1.88;;;23.30;51.50;;;;;;5043039;28;20135;-36
2021/05/21 10:56:12;;;;;;;4.47;1.90;;;23.30;52.60;;;;;;5073764;28;20100;-39
2021/05/21 10:58:43;;;;;;;13.27;2.55;;;23.50;51.80;;;;;;5067862;28;20040;-34
2021/05/21 11:01:14;;;;;;;5.47;2.50;;;23.60;51.40;;;;;;5071542;28;20452;-32
2021/05/21 11:03:58;;;;;;;6.15;2.20;;;23.70;50.60;;;;;;5069272;28;20061;-36
2021/05/21 11:06:27;;;;;;;5.40;2.25;;;23.80;50.50;;;;;;5070653;28;20016;-35
2021/05/21 11:09:05;;;;;;;3.03;1.77;;;23.80;51.40;;;;;;5066756;28;20036;-44
2021/05/21 11:11:43;;;;;;;4.40;1.90;;;23.70;51.20;;;;;;5066384;28;20051;-35
2021/05/21 11:14:37;;;;;;;3.95;2.03;;;23.70;51.10;;;;;;5065875;28;20149;-38
2021/05/21 11:17:09;;;;;;;10.57;1.80;;;23.80;50.80;;;;;;5066185;28;20076;-38
2021/05/21 11:19:34;;;;;;;3.80;1.98;;;23.60;51.60;;;;;;5066357;28;20029;-34
2021/05/21 11:22:17;;;;;;;4.50;1.90;;;23.60;51.90;;;;;;5068847;28;20907;-34
2021/05/21 11:24:45;;;;;;;2.58;1.55;;;23.60;52.20;;;;;;5066499;28;20024;-34
2021/05/21 11:27:11;;;;;;;4.13;1.90;;;23.50;52.50;;;;;;5062045;28;20032;-35
2021/05/21 11:29:41;;;;;;;6.03;1.92;;;23.60;52.40;;;;;;5065792;28;20050;-36
2021/05/21 11:32:07;;;;;;;4.10;1.70;;;23.80;51.20;;;;;;5066581;28;20115;-36
2021/05/21 11:34:32;;;;;;;2.70;1.80;;;23.90;50.80;;;;;;5068348;28;20032;-37
2021/05/21 11:36:58;;;;;;;3.15;1.60;;;24.00;50.50;;;;;;5068279;28;20039;-36
2021/05/21 11:39:26;;;;;;;2.88;1.88;;;24.00;50.60;;;;;;5062516;28;20055;-36
2021/05/21 11:41:53;;;;;;;3.50;1.80;;;24.10;50.50;;;;;;5063743;28;20031;-36
2021/05/21 11:44:19;;;;;;;1.90;1.45;;;23.90;51.30;;;;;;5052193;28;20406;-35
2021/05/21 11:46:46;;;;;;;4.25;1.55;;;23.90;51.50;;;;;;5067757;28;20025;-33
2021/05/21 11:49:19;;;;;;;1.50;1.20;;;23.80;51.30;;;;;;5067855;28;20040;-35
2021/05/21 11:51:51;;;;;;;1.90;1.70;;;23.70;51.90;;;;;;5068067;28;20030;-34
2021/05/21 11:54:17;;;;;;;2.42;1.38;;;23.70;51.70;;;;;;5063825;28;20039;-33
2021/05/21 11:56:43;;;;;;;2.85;1.60;;;23.70;51.70;;;;;;5058450;28;20683;-36
2021/05/21 11:59:18;;;;;;;2.88;1.60;;;23.70;51.80;;;;;;5070085;28;20066;-35
2021/05/21 12:01:53;;;;;;;4.28;1.63;;;23.60;51.80;;;;;;5060155;28;20131;-36
2021/05/21 12:04:28;;;;;;;3.20;1.50;;;23.60;51.60;;;;;;5054487;28;20043;-36
2021/05/21 12:06:54;;;;;;;2.47;1.45;;;23.60;52.00;;;;;;5056420;28;20481;-36
2021/05/21 12:09:21;;;;;;;4.28;1.17;;;23.60;51.60;;;;;;5059189;28;20495;-34
2021/05/21 12:11:48;;;;;;;2.67;1.40;;;23.70;51.80;;;;;;5058800;28;20059;-37
2021/05/21 12:14:15;;;;;;;2.83;1.55;;;23.70;51.50;;;;;;5056113;28;20056;-34
2021/05/21 12:16:42;;;;;;;1.60;1.38;;;23.80;51.60;;;;;;5052801;28;20051;-36
2021/05/21 12:19:08;;;;;;;1.75;1.20;;;23.90;51.70;;;;;;5052879;28;20099;-35
2021/05/21 12:21:36;;;;;;;2.40;1.30;;;23.80;51.60;;;;;;5059307;28;20025;-36
2021/05/21 12:24:02;;;;;;;4.65;1.20;;;23.90;51.60;;;;;;5059212;28;20498;-36
2021/05/21 12:26:32;;;;;;;1.50;1.17;;;23.90;51.10;;;;;;5055635;28;20047;-42
2021/05/21 12:28:58;;;;;;;1.73;1.00;;;24.00;51.40;;;;;;5056850;28;20029;-38
2021/05/21 12:31:26;;;;;;;2.10;1.38;;;24.00;52.10;;;;;;5060638;28;20032;-34
2021/05/21 12:33:52;;;;;;;1.67;1.15;;;23.90;51.60;;;;;;5058393;28;20482;-34
2021/05/21 12:36:18;;;;;;;1.95;1.40;;;23.80;51.70;;;;;;5059669;28;20086;-33
2021/05/21 12:38:51;;;;;;;2.17;1.30;;;23.90;51.50;;;;;;5058564;28;20032;-33
2021/05/21 12:41:25;;;;;;;2.45;1.15;;;24.00;51.20;;;;;;5062974;28;20101;-37
2021/05/21 12:43:51;;;;;;;;;;;24.00;51.80;;;;;;5055154;28;20040;-34
2021/05/21 12:46:16;;;;;;;1.80;1.00;;;23.80;51.60;;;;;;5058003;28;20407;-30
2021/05/21 12:48:43;;;;;;;1.45;1.13;;;23.90;52.20;;;;;;5060862;28;20017;-35
2021/05/21 12:51:10;;;;;;;1.83;1.17;;;23.70;52.40;;;;;;5060252;28;20032;-35
2021/05/21 12:53:35;;;;;;;2.10;1.08;;;23.90;51.70;;;;;;5058051;28;20427;-43